Time;durP1;ratioP1;P1;durP2;ratioP2;P2;SDS_P1;SDS_P2;PMS_P1;PMS_P2;Temp;Humidity;BMP_temperature;BMP_pressure;BME280_temperature;BME280_humidity;BME280_pressure;Samples;Min_cycle;Max_cycle;Signal;HPM_P1;HPM_P2
2021/04/04 00:02:20;;;;;;;;;;;4.20;99.90;;;;;;5032446;28;19986;-78
2021/04/04 00:04:45;;;;;;;;;;;4.20;99.90;;;;;;5031386;28;19905;-79
2021/04/04 00:07:11;;;;;;;;;;;4.20;99.90;;;;;;5032304;28;19927;-78
2021/04/04 00:09:37;;;;;;;;;;;4.20;99.90;;;;;;5032367;28;20384;-77
2021/04/04 00:12:03;;;;;;;;;;;4.10;99.90;;;;;;5032668;28;20370;-79
2021/04/04 00:14:28;;;;;;;;;;;4.20;99.90;;;;;;5032183;28;20011;-79
2021/04/04 00:16:54;;;;;;;;;;;4.30;99.90;;;;;;5032629;28;19905;-78
2021/04/04 00:19:19;;;;;;;;;;;4.30;99.90;;;;;;5032573;28;19916;-78
2021/04/04 00:21:45;;;;;;;;;;;4.40;99.90;;;;;;5032503;28;19905;-78
2021/04/04 00:24:11;;;;;;;;;;;4.50;99.90;;;;;;5032035;28;19905;-79
2021/04/04 00:26:36;;;;;;;;;;;4.40;99.90;;;;;;5032025;28;20003;-80
2021/04/04 00:29:04;;;;;;;;;;;4.50;99.90;;;;;;5032376;28;19931;-78
2021/04/04 00:31:30;;;;;;;;;;;4.50;99.90;;;;;;5031912;28;19909;-78
2021/04/04 00:33:55;;;;;;;;;;;4.50;99.90;;;;;;5031749;28;19992;-78
2021/04/04 00:36:21;;;;;;;;;;;4.40;99.90;;;;;;5032010;28;20015;-76
2021/04/04 00:38:47;;;;;;;;;;;4.40;99.90;;;;;;5031909;28;19912;-81
2021/04/04 00:41:12;;;;;;;;;;;4.30;99.90;;;;;;5031841;28;19905;-78
2021/04/04 00:43:38;;;;;;;;;;;4.30;99.90;;;;;;5033043;28;19912;-78
2021/04/04 00:46:03;;;;;;;;;;;4.20;99.90;;;;;;5031360;28;19954;-79
2021/04/04 00:48:29;;;;;;;;;;;4.30;99.90;;;;;;5031441;28;19948;-78
2021/04/04 00:50:54;;;;;;;;;;;4.30;99.90;;;;;;5031772;28;20365;-78
2021/04/04 00:53:20;;;;;;;;;;;4.30;99.90;;;;;;5031707;28;19932;-79
2021/04/04 00:55:45;;;;;;;;;;;4.30;99.90;;;;;;5031474;28;20317;-78
2021/04/04 00:58:11;;;;;;;;;;;4.30;99.90;;;;;;5032106;28;19911;-81
2021/04/04 01:00:37;;;;;;;;;;;4.30;99.90;;;;;;5031721;28;19912;-77
2021/04/04 01:03:03;;;;;;;;;;;4.30;99.90;;;;;;5031993;28;19915;-78
2021/04/04 01:05:33;;;;;;;;;;;4.20;99.90;;;;;;5031289;28;20354;-78
2021/04/04 01:07:59;;;;;;;;;;;4.10;99.90;;;;;;5031690;28;19913;-78
2021/04/04 01:10:26;;;;;;;;;;;4.10;99.90;;;;;;5031578;28;19913;-78
2021/04/04 01:12:52;;;;;;;;;;;4.10;99.90;;;;;;5031657;28;19905;-81
2021/04/04 01:15:32;;;;;;;;;;;4.10;99.90;;;;;;5031828;28;19905;-78
2021/04/04 01:18:02;;;;;;;;;;;4.00;99.90;;;;;;5035138;28;20404;-78
2021/04/04 01:20:31;;;;;;;;;;;4.00;99.90;;;;;;5034965;28;19904;-79
2021/04/04 01:23:21;;;;;;;;;;;4.00;99.90;;;;;;5035551;28;19909;-78
2021/04/04 01:25:48;;;;;;;;;;;3.90;99.90;;;;;;5034745;28;19905;-79
2021/04/04 01:28:15;;;;;;;;;;;3.90;99.90;;;;;;5034916;28;19980;-80
2021/04/04 01:30:41;;;;;;;;;;;3.90;99.90;;;;;;5035278;28;19909;-81
2021/04/04 01:33:09;;;;;;;;;;;3.80;99.90;;;;;;5035347;28;19912;-78
2021/04/04 01:35:37;;;;;;;;;;;3.70;99.90;;;;;;5034871;28;19909;-78
2021/04/04 01:38:12;;;;;;;;;;;3.70;99.90;;;;;;5034945;28;20321;-78
2021/04/04 01:40:38;;;;;;;;;;;3.70;99.90;;;;;;5034879;28;20365;-78
2021/04/04 01:43:05;;;;;;;;;;;3.70;99.90;;;;;;5034911;28;20281;-78
2021/04/04 01:45:31;;;;;;;;;;;3.70;99.90;;;;;;5034759;28;19912;-77
2021/04/04 01:47:57;;;;;;;;;;;3.70;99.90;;;;;;5034593;28;19905;-77
2021/04/04 01:50:24;;;;;;;;;;;3.60;99.90;;;;;;5022113;28;20359;-80
2021/04/04 01:52:50;;;;;;;;;;;3.60;99.90;;;;;;5014300;28;20008;-78
2021/04/04 01:55:16;;;;;;;;;;;3.60;99.90;;;;;;5017563;28;19948;-80
2021/04/04 01:57:42;;;;;;;;;;;3.50;99.90;;;;;;5016749;28;19912;-82
2021/04/04 02:00:09;;;;;;;;;;;3.40;99.90;;;;;;5016975;28;19905;-79
2021/04/04 02:02:35;;;;;;;;;;;3.40;99.90;;;;;;5014974;28;19916;-78
2021/04/04 02:05:03;;;;;;;;;;;3.30;99.90;;;;;;5014864;28;19906;-80
2021/04/04 02:07:28;;;;;;;;;;;3.20;99.90;;;;;;5017801;28;19906;-80
2021/04/04 02:09:54;;;;;;;;;;;3.20;99.90;;;;;;5019741;28;20513;-82
2021/04/04 02:12:19;;;;;;;;;;;3.10;99.90;;;;;;5017349;28;19912;-80
2021/04/04 02:14:47;;;;;;;;;;;3.20;99.90;;;;;;5017506;28;20290;-79
2021/04/04 02:17:13;;;;;;;;;;;3.20;99.90;;;;;;5016193;28;19912;-77
2021/04/04 02:19:38;;;;;;;;;;;3.10;99.90;;;;;;5016871;28;19906;-78
2021/04/04 02:22:04;;;;;;;;;;;3.10;99.90;;;;;;5018768;28;20371;-77
2021/04/04 02:24:30;;;;;;;;;;;3.10;99.90;;;;;;5017805;28;20438;-79
2021/04/04 02:26:56;;;;;;;;;;;3.20;99.90;;;;;;5017142;28;20272;-79
2021/04/04 02:29:22;;;;;;;;;;;3.10;99.90;;;;;;5017991;28;19906;-76
2021/04/04 02:32:01;;;;;;;;;;;3.10;99.90;;;;;;5014808;28;19917;-79
2021/04/04 02:34:32;;;;;;;;;;;3.10;99.90;;;;;;5016088;28;19905;-80
2021/04/04 02:36:58;;;;;;;;;;;3.10;99.90;;;;;;5016505;28;19905;-79
2021/04/04 02:39:23;;;;;;;;;;;2.90;99.90;;;;;;5017286;28;19921;-79
2021/04/04 02:41:49;;;;;;;;;;;2.80;99.90;;;;;;5016838;28;20322;-79
2021/04/04 02:44:15;;;;;;;;;;;2.90;99.90;;;;;;5016077;28;19916;-80
2021/04/04 02:46:45;;;;;;;;;;;2.90;99.90;;;;;;5017010;28;19906;-80
2021/04/04 02:49:11;;;;;;;;;;;2.90;99.90;;;;;;5016828;28;19928;-81
2021/04/04 02:51:41;;;;;;;;;;;2.90;99.90;;;;;;5015616;28;19910;-79
2021/04/04 02:54:07;;;;;;;;;;;2.80;99.90;;;;;;5015446;28;20283;-80
2021/04/04 02:56:38;;;;;;;;;;;2.90;99.90;;;;;;5015461;28;19912;-79
2021/04/04 02:59:04;;;;;;;;;;;2.80;99.90;;;;;;5015561;28;20406;-83
2021/04/04 03:01:32;;;;;;;;;;;2.90;99.90;;;;;;5016321;28;19928;-82
2021/04/04 03:03:58;;;;;;;;;;;2.80;99.90;;;;;;5014175;28;19912;-78
2021/04/04 03:06:24;;;;;;;;;;;2.80;99.90;;;;;;5014367;28;19906;-79
2021/04/04 03:08:52;;;;;;;;;;;2.80;99.90;;;;;;5014005;28;20371;-80
2021/04/04 03:11:18;;;;;;;;;;;2.80;99.90;;;;;;5014295;28;19945;-81
2021/04/04 03:13:46;;;;;;;;;;;2.70;99.90;;;;;;5014781;28;20293;-80
2021/04/04 03:16:12;;;;;;;;;;;2.70;99.90;;;;;;5015643;28;19906;-76
2021/04/04 03:18:38;;;;;;;;;;;2.70;99.90;;;;;;5016279;28;20378;-78
2021/04/04 03:21:04;;;;;;;;;;;2.70;99.90;;;;;;5015720;28;19906;-79
2021/04/04 03:23:30;;;;;;;;;;;2.60;99.90;;;;;;5015521;28;19913;-79
2021/04/04 03:25:56;;;;;;;;;;;2.60;99.90;;;;;;5015676;28;19912;-79
2021/04/04 03:28:22;;;;;;;;;;;2.60;99.90;;;;;;5015444;28;20389;-78
2021/04/04 03:30:48;;;;;;;;;;;2.60;99.90;;;;;;5015487;28;19909;-77
2021/04/04 03:33:18;;;;;;;;;;;2.50;99.90;;;;;;5016456;28;19906;-79
2021/04/04 03:35:48;;;;;;;;;;;2.70;99.90;;;;;;5015931;28;19975;-80
2021/04/04 03:38:14;;;;;;;;;;;2.60;99.90;;;;;;5016461;28;19928;-78
2021/04/04 03:40:40;;;;;;;;;;;2.60;99.90;;;;;;5016320;28;19911;-78
2021/04/04 03:43:11;;;;;;;;;;;2.80;99.90;;;;;;5016055;28;20403;-79
2021/04/04 03:45:36;;;;;;;;;;;2.90;99.90;;;;;;5015894;28;19906;-77
2021/04/04 03:48:03;;;;;;;;;;;3.10;99.90;;;;;;5016453;28;19958;-80
2021/04/04 03:50:29;;;;;;;;;;;3.30;99.90;;;;;;5016039;28;19924;-78
2021/04/04 03:52:55;;;;;;;;;;;3.50;99.90;;;;;;5014464;28;19910;-76
2021/04/04 03:55:22;;;;;;;;;;;3.60;99.90;;;;;;5013236;28;19910;-76
2021/04/04 03:57:51;;;;;;;;;;;3.60;99.90;;;;;;5013335;28;19956;-79
2021/04/04 04:00:19;;;;;;;;;;;3.60;99.90;;;;;;5013760;28;19956;-78
2021/04/04 04:02:45;;;;;;;;;;;3.60;99.90;;;;;;5012919;28;20008;-77
2021/04/04 04:05:12;;;;;;;;;;;3.50;99.90;;;;;;5012364;28;19937;-78
2021/04/04 04:07:38;;;;;;;;;;;3.50;99.90;;;;;;5012949;28;19905;-78
2021/04/04 04:10:04;;;;;;;;;;;3.40;99.90;;;;;;5012983;28;19952;-77
2021/04/04 04:12:30;;;;;;;;;;;3.40;99.90;;;;;;5013054;28;19920;-77
2021/04/04 04:14:56;;;;;;;;;;;3.40;99.90;;;;;;5012790;28;20426;-76
2021/04/04 04:17:23;;;;;;;;;;;3.40;99.90;;;;;;5012933;28;19905;-78
2021/04/04 04:19:48;;;;;;;;;;;3.30;99.90;;;;;;5012957;28;19912;-78
2021/04/04 04:22:14;;;;;;;;;;;3.10;99.90;;;;;;5012899;28;19905;-77
2021/04/04 04:24:40;;;;;;;;;;;3.00;99.90;;;;;;5012933;28;19905;-78
2021/04/04 04:27:06;;;;;;;;;;;2.90;99.90;;;;;;5012981;28;19931;-76
2021/04/04 04:29:32;;;;;;;;;;;2.80;99.90;;;;;;5012751;28;19905;-78
2021/04/04 04:31:59;;;;;;;;;;;2.80;99.90;;;;;;5012865;28;19909;-77
2021/04/04 04:34:26;;;;;;;;;;;2.60;99.90;;;;;;5013199;28;19906;-78
2021/04/04 04:36:52;;;;;;;;;;;2.50;99.90;;;;;;5013035;28;19949;-78
2021/04/04 04:39:18;;;;;;;;;;;2.50;99.90;;;;;;5013217;28;19905;-76
2021/04/04 04:41:48;;;;;;;;;;;2.40;99.90;;;;;;5012982;28;19916;-78
2021/04/04 04:44:15;;;;;;;;;;;2.40;99.90;;;;;;5012262;28;19906;-77
2021/04/04 04:46:43;;;;;;;;;;;2.40;99.90;;;;;;5013345;28;19922;-77
2021/04/04 04:49:08;;;;;;;;;;;2.40;99.90;;;;;;5010915;28;19913;-78
2021/04/04 04:51:34;;;;;;;;;;;2.40;99.90;;;;;;5013205;28;19963;-80
2021/04/04 04:54:00;;;;;;;;;;;2.40;99.90;;;;;;5013839;28;19906;-77
2021/04/04 04:56:25;;;;;;;;;;;2.40;99.90;;;;;;5014562;28;20332;-77
2021/04/04 04:58:52;;;;;;;;;;;2.40;99.90;;;;;;5014012;28;19952;-79
2021/04/04 05:01:20;;;;;;;;;;;2.40;99.90;;;;;;5014894;28;19959;-79
2021/04/04 05:03:47;;;;;;;;;;;2.40;99.90;;;;;;5014403;28;19916;-77
2021/04/04 05:06:13;;;;;;;;;;;2.50;99.90;;;;;;5014193;28;19948;-76
2021/04/04 05:08:39;;;;;;;;;;;2.70;99.90;;;;;;5015049;28;19938;-79
2021/04/04 05:11:06;;;;;;;;;;;2.80;99.90;;;;;;5014355;28;19909;-79
2021/04/04 05:13:32;;;;;;;;;;;3.00;99.90;;;;;;5014593;28;19991;-77
2021/04/04 05:15:59;;;;;;;;;;;3.10;99.90;;;;;;5015897;28;20371;-77
2021/04/04 05:18:25;;;;;;;;;;;3.10;99.90;;;;;;5016175;28;19925;-79
2021/04/04 05:20:50;;;;;;;;;;;3.20;99.90;;;;;;5018405;28;19912;-78
2021/04/04 05:23:20;;;;;;;;;;;3.40;99.90;;;;;;5017414;28;19916;-81
2021/04/04 05:25:46;;;;;;;;;;;3.40;99.90;;;;;;5017670;28;20352;-80
2021/04/04 05:28:11;;;;;;;;;;;3.50;99.90;;;;;;5018477;28;20252;-79
2021/04/04 05:30:37;;;;;;;;;;;3.50;99.90;;;;;;5018900;28;20366;-78
2021/04/04 05:33:04;;;;;;;;;;;3.70;99.90;;;;;;5019332;28;19906;-77
2021/04/04 05:35:29;;;;;;;;;;;3.70;99.90;;;;;;5019478;28;19951;-77
2021/04/04 05:37:55;;;;;;;;;;;3.90;99.90;;;;;;5020218;28;20011;-79
2021/04/04 05:40:24;;;;;;;;;;;4.00;99.90;;;;;;5018641;28;20261;-79
2021/04/04 05:42:54;;;;;;;;;;;4.10;99.90;;;;;;5017661;28;19969;-80
2021/04/04 05:45:35;;;;;;;;;;;4.10;99.90;;;;;;5017168;28;19988;-80
2021/04/04 05:48:15;;;;;;;;;;;4.20;99.90;;;;;;5017887;28;19936;-82
2021/04/04 05:50:43;;;;;;;;;;;4.20;99.90;;;;;;5020975;28;19968;-80
2021/04/04 05:53:15;;;;;;;;;;;4.30;99.90;;;;;;5022420;28;19905;-79
2021/04/04 05:55:43;;;;;;;;;;;4.70;99.90;;;;;;5016782;28;19906;-81
2021/04/04 05:58:15;;;;;;;;;;;5.70;99.90;;;;;;5017591;28;19906;-79
2021/04/04 06:00:46;;;;;;;;;;;6.70;99.90;;;;;;5018936;28;19905;-80
2021/04/04 06:03:11;;;;;;;;;;;7.40;99.90;;;;;;5017946;28;19906;-81
2021/04/04 06:05:49;;;;;;;3.30;1.90;;;7.50;99.90;;;;;;5025623;28;19916;-78
2021/04/04 06:08:18;;;;;;;4.25;2.05;;;8.60;99.90;;;;;;5032815;28;20025;-78
2021/04/04 06:11:04;;;;;;;6.97;2.53;;;8.90;99.90;;;;;;5029539;28;20029;-78
2021/04/04 06:14:17;;;;;;;5.72;2.17;;;9.50;99.90;;;;;;5032949;28;20505;-78
2021/04/04 06:17:09;;;;;;;7.55;1.80;;;11.10;99.90;;;;;;5003582;28;20025;-78
2021/04/04 06:20:14;;;;;;;1.90;1.30;;;11.30;98.70;;;;;;5033996;28;20056;-77
2021/04/04 06:23:17;;;;;;;4.70;1.65;;;12.20;96.80;;;;;;5033593;28;20112;-77
2021/04/04 06:25:56;;;;;;;2.42;1.65;;;13.90;90.90;;;;;;4990820;28;20022;-79
2021/04/04 06:28:39;;;;;;;5.38;1.73;;;14.80;85.00;;;;;;5032043;28;20037;-79
2021/04/04 06:31:29;;;;;;;8.20;1.92;;;15.70;76.50;;;;;;5033038;28;20040;-80
2021/04/04 06:34:16;;;;;;;4.05;2.05;;;15.20;76.30;;;;;;5031582;28;20029;-80
2021/04/04 06:37:22;;;;;;;5.22;2.25;;;15.10;76.20;;;;;;5031727;28;20437;-77
2021/04/04 06:40:04;;;;;;;5.68;2.80;;;15.00;73.10;;;;;;5004240;28;20065;-79
2021/04/04 06:42:49;;;;;;;4.30;1.83;;;15.80;71.70;;;;;;5032015;28;20505;-78
2021/04/04 06:45:26;;;;;;;3.42;2.17;;;15.20;72.20;;;;;;5031699;28;20036;-78
2021/04/04 06:48:20;;;;;;;3.92;2.25;;;15.80;72.40;;;;;;5031592;28;20137;-80
2021/04/04 06:50:54;;;;;;;3.75;2.60;;;15.60;69.90;;;;;;5013832;28;20164;-77
2021/04/04 06:53:37;;;;;;;4.85;2.80;;;13.50;76.50;;;;;;5022245;28;20493;-78
2021/04/04 06:56:29;;;;;;;3.78;2.38;;;12.00;85.50;;;;;;5028167;28;20032;-79
2021/04/04 06:59:12;;;;;;;3.65;2.17;;;14.00;79.30;;;;;;5031965;28;20022;-79
2021/04/04 07:02:06;;;;;;;7.22;2.50;;;15.00;76.00;;;;;;5030880;28;20501;-78
2021/04/04 07:04:47;;;;;;;5.57;2.60;;;15.70;72.40;;;;;;5030549;28;20076;-78
2021/04/04 07:07:57;;;;;;;7.43;2.85;;;16.50;69.00;;;;;;5030691;28;20091;-78
2021/04/04 07:10:51;;;;;;;3.63;2.55;;;16.60;70.00;;;;;;5030462;28;20029;-80
2021/04/04 07:13:31;;;;;;;5.38;2.95;;;17.50;66.70;;;;;;5030309;28;20381;-79
2021/04/04 07:16:18;;;;;;;3.60;2.47;;;18.00;65.40;;;;;;5030261;28;20036;-80
2021/04/04 07:19:15;;;;;;;6.68;3.08;;;17.90;63.90;;;;;;5030143;28;20018;-75
2021/04/04 07:21:50;;;;;;;5.43;2.63;;;17.00;66.40;;;;;;5031254;28;20036;-78
2021/04/04 07:24:36;;;;;;;4.28;2.53;;;16.20;66.80;;;;;;5030086;28;20029;-78
2021/04/04 07:27:14;;;;;;;3.50;2.97;;;15.60;68.70;;;;;;5030874;28;20029;-78
2021/04/04 07:30:28;;;;;;;4.05;2.75;;;16.50;67.50;;;;;;5030467;28;20296;-77
2021/04/04 07:33:02;;;;;;;5.28;2.83;;;18.20;64.00;;;;;;5030846;28;20026;-78
2021/04/04 07:35:39;;;;;;;5.40;3.10;;;20.50;60.20;;;;;;5030382;28;20235;-78
2021/04/04 07:38:18;;;;;;;6.25;2.85;;;18.80;59.90;;;;;;5030203;28;20022;-79
2021/04/04 07:41:08;;;;;;;6.53;3.38;;;19.60;58.70;;;;;;5029664;28;20030;-78
2021/04/04 07:43:56;;;;;;;6.07;3.53;;;18.80;58.30;;;;;;5030425;28;20084;-78
2021/04/04 07:46:29;;;;;;;7.13;3.20;;;17.30;59.70;;;;;;5030421;28;20026;-79
2021/04/04 07:49:19;;;;;;;9.38;3.17;;;19.40;58.80;;;;;;5029913;28;20095;-77
2021/04/04 07:51:48;;;;;;;5.07;2.42;;;20.80;57.30;;;;;;5030649;28;20483;-78
2021/04/04 07:54:33;;;;;;;6.78;2.97;;;19.80;55.30;;;;;;5032123;28;20045;-80
2021/04/04 07:57:25;;;;;;;6.70;3.33;;;20.00;55.60;;;;;;5032618;28;20034;-79
2021/04/04 07:59:55;;;;;;;7.28;3.22;;;21.20;55.00;;;;;;5031007;28;20038;-79
2021/04/04 08:02:28;;;;;;;4.72;3.10;;;21.70;54.30;;;;;;5029905;28;20026;-79
2021/04/04 08:05:02;;;;;;;8.90;2.83;;;22.70;53.80;;;;;;5029368;28;20030;-77
2021/04/04 08:07:56;;;;;;;4.00;2.75;;;23.40;49.60;;;;;;5030302;28;20087;-79
2021/04/04 08:10:30;;;;;;;5.43;2.28;;;21.70;49.30;;;;;;5027118;28;20030;-78
2021/04/04 08:13:19;;;;;;;3.65;2.63;;;23.00;50.80;;;;;;5030941;28;20044;-78
2021/04/04 08:15:49;;;;;;;6.60;3.10;;;22.80;49.50;;;;;;5031267;28;20025;-78
2021/04/04 08:18:15;;;;;;;5.35;3.55;;;21.20;50.90;;;;;;5033227;28;20466;-81
2021/04/04 08:20:54;;;;;;;6.72;2.58;;;21.80;50.40;;;;;;5033451;28;20052;-80
2021/04/04 08:23:39;;;;;;;4.47;3.08;;;23.40;49.40;;;;;;5032515;28;20021;-78
2021/04/04 08:26:18;;;;;;;6.03;2.97;;;22.70;48.30;;;;;;5034386;28;20025;-80
2021/04/04 08:29:13;;;;;;;3.72;2.65;;;22.70;48.90;;;;;;5036599;28;20029;-80
2021/04/04 08:31:54;;;;;;;4.05;2.42;;;22.00;52.40;;;;;;5036440;28;20028;-80
2021/04/04 08:34:33;;;;;;;3.95;2.40;;;21.80;49.60;;;;;;5036175;28;20112;-78
2021/04/04 08:37:04;;;;;;;6.10;3.03;;;21.70;48.60;;;;;;5036003;28;20116;-79
2021/04/04 08:39:32;;;;;;;4.60;2.90;;;23.50;47.90;;;;;;5036807;28;20022;-78
2021/04/04 08:42:02;;;;;;;5.93;2.85;;;23.40;46.30;;;;;;5036271;28;20486;-79
2021/04/04 08:44:35;;;;;;;6.60;2.90;;;22.90;47.60;;;;;;5035535;28;20550;-79
2021/04/04 08:47:04;;;;;;;6.22;3.05;;;23.50;45.90;;;;;;5040243;28;20026;-78
2021/04/04 08:49:31;;;;;;;4.80;3.33;;;24.10;46.30;;;;;;5037757;28;20030;-79
2021/04/04 08:52:07;;;;;;;4.22;2.78;;;24.80;45.10;;;;;;5037939;28;20036;-78
2021/04/04 08:54:34;;;;;;;5.53;2.97;;;25.90;45.30;;;;;;5039080;28;20033;-79
2021/04/04 08:57:00;;;;;;;6.78;2.90;;;26.40;44.90;;;;;;5038673;28;20018;-79
2021/04/04 08:59:31;;;;;;;6.00;3.17;;;25.80;44.00;;;;;;5033190;28;20026;-81
2021/04/04 09:02:01;;;;;;;6.53;3.92;;;25.50;43.20;;;;;;5032776;28;20036;-80
2021/04/04 09:04:28;;;;;;;5.85;2.85;;;25.30;43.90;;;;;;5032850;28;20110;-79
2021/04/04 09:07:01;;;;;;;;;;;24.90;42.80;;;;;;5034124;28;20551;-81
2021/04/04 09:09:31;;;;;;;6.97;3.38;;;25.70;44.80;;;;;;5034876;28;19905;-83
2021/04/04 09:12:00;;;;;;;5.43;3.78;;;26.00;43.60;;;;;;5034468;28;20026;-83
2021/04/04 09:14:33;;;;;;;3.72;2.97;;;27.00;41.90;;;;;;5033925;28;20533;-78
2021/04/04 09:17:05;;;;;;;3.40;2.30;;;24.90;42.60;;;;;;5033317;28;20029;-80
2021/04/04 09:19:36;;;;;;;4.47;2.97;;;23.50;44.10;;;;;;5033337;28;20022;-80
2021/04/04 09:22:05;;;;;;;9.00;3.50;;;24.30;44.10;;;;;;5033168;28;20040;-77
2021/04/04 09:24:39;;;;;;;9.65;2.63;;;25.60;43.00;;;;;;5033267;28;20437;-77
2021/04/04 09:27:11;;;;;;;5.57;2.90;;;25.60;43.10;;;;;;5032990;28;20041;-80
2021/04/04 09:29:38;;;;;;;6.55;2.85;;;26.80;41.60;;;;;;5033462;28;20032;-78
2021/04/04 09:32:13;;;;;;;8.55;3.33;;;26.50;42.00;;;;;;5033190;28;20159;-77
2021/04/04 09:34:41;;;;;;;5.18;2.95;;;26.00;42.30;;;;;;5033250;28;20035;-79
2021/04/04 09:37:07;;;;;;;5.68;2.95;;;27.20;41.50;;;;;;5032658;28;20034;-78
2021/04/04 09:39:37;;;;;;;7.72;3.30;;;27.60;42.60;;;;;;5033044;28;20382;-79
2021/04/04 09:42:03;;;;;;;6.05;3.42;;;27.70;42.10;;;;;;5032860;28;20040;-80
2021/04/04 09:44:30;;;;;;;;;;;27.50;42.30;;;;;;5032926;28;20030;-80
2021/04/04 09:46:58;;;;;;;;;;;27.40;40.10;;;;;;5033055;28;20484;-79
2021/04/04 09:49:45;;;;;;;4.00;2.83;;;25.80;42.40;;;;;;5032594;28;19963;-80
2021/04/04 09:52:29;;;;;;;6.20;3.05;;;26.20;41.00;;;;;;5032502;28;20029;-81
2021/04/04 09:54:59;;;;;;;4.25;2.60;;;26.00;41.60;;;;;;5032565;28;20026;-80
2021/04/04 09:57:25;;;;;;;5.03;2.60;;;26.20;41.50;;;;;;5032722;28;20056;-79
2021/04/04 09:59:51;;;;;;;5.78;2.45;;;26.80;42.60;;;;;;5032785;28;20041;-77
2021/04/04 10:02:33;;;;;;;7.03;2.90;;;26.70;40.40;;;;;;5032566;28;20479;-78
2021/04/04 10:04:59;;;;;;;5.22;3.25;;;27.60;40.40;;;;;;5032400;28;20021;-77
2021/04/04 10:07:34;;;;;;;3.65;2.40;;;27.20;39.80;;;;;;5032220;28;21039;-79
2021/04/04 10:10:02;;;;;;;4.78;2.22;;;25.80;38.40;;;;;;5013675;28;20030;-79
2021/04/04 10:12:28;;;;;;;5.10;2.47;;;26.20;40.30;;;;;;5012176;28;20046;-80
2021/04/04 10:15:01;;;;;;;5.87;2.47;;;26.40;38.70;;;;;;5014728;28;20391;-80
2021/04/04 10:17:27;;;;;;;4.28;2.28;;;26.10;41.00;;;;;;5018881;28;20021;-78
2021/04/04 10:19:57;;;;;;;3.57;2.80;;;26.30;39.60;;;;;;5019691;28;20045;-79
2021/04/04 10:22:22;;;;;;;4.05;2.40;;;27.40;38.60;;;;;;5022898;28;20026;-78
2021/04/04 10:24:48;;;;;;;4.50;2.63;;;28.00;40.10;;;;;;5021984;28;20033;-78
2021/04/04 10:27:29;;;;;;;4.95;2.88;;;28.00;41.00;;;;;;5022170;28;20482;-78
2021/04/04 10:30:15;;;;;;;5.65;2.30;;;27.50;38.60;;;;;;5020804;28;20082;-78
2021/04/04 10:32:42;;;;;;;5.15;2.80;;;25.70;40.20;;;;;;5029742;28;20045;-78
2021/04/04 10:35:09;;;;;;;;;;;23.60;42.80;;;;;;5026627;28;20108;-78
2021/04/04 10:37:35;;;;;;;;;;;21.60;44.10;;;;;;5016352;28;19909;-79
2021/04/04 10:40:03;;;;;;;;;;;19.70;46.00;;;;;;5018318;28;20004;-77
2021/04/04 10:42:29;;;;;;;;;;;17.50;48.80;;;;;;5023136;28;20355;-79
2021/04/04 10:45:07;;;;;;;;;;;16.40;52.60;;;;;;5012837;28;19905;-79
2021/04/04 10:47:33;;;;;;;;;;;17.30;52.10;;;;;;5017439;28;19909;-79
2021/04/04 10:50:00;;;;;;;;;;;19.60;50.10;;;;;;5017727;28;19917;-80
2021/04/04 10:52:27;;;;;;;;;;;22.10;44.20;;;;;;5023543;28;20270;-77
2021/04/04 10:54:55;;;;;;;4.60;2.83;;;22.50;43.50;;;;;;5030628;28;19991;-80
2021/04/04 10:57:21;;;;;;;4.03;2.40;;;24.70;42.10;;;;;;5024082;28;20030;-80
2021/04/04 10:59:47;;;;;;;3.53;2.30;;;25.70;40.00;;;;;;5021963;28;20497;-80
2021/04/04 11:02:13;;;;;;;4.63;2.78;;;24.40;40.70;;;;;;5021919;28;20021;-80
2021/04/04 11:04:40;;;;;;;3.27;2.20;;;24.60;43.60;;;;;;5027313;28;20028;-80
2021/04/04 11:07:07;;;;;;;4.30;2.88;;;22.30;42.60;;;;;;5010372;28;20041;-79
2021/04/04 11:09:33;;;;;;;;;;;19.80;46.50;;;;;;5010634;28;20442;-79
2021/04/04 11:12:00;;;;;;;;;;;18.60;49.20;;;;;;5010694;28;19917;-80
2021/04/04 11:14:26;;;;;;;;;;;17.30;49.70;;;;;;5015237;28;20366;-79
2021/04/04 11:16:55;;;;;;;;;;;18.20;49.50;;;;;;5020629;28;20239;-79
2021/04/04 11:19:22;;;;;;;;;;;19.10;51.00;;;;;;5018756;28;19925;-79
2021/04/04 11:21:48;;;;;;;;;;;19.40;50.10;;;;;;5025001;28;19923;-79
2021/04/04 11:24:15;;;;;;;;;;;18.30;49.50;;;;;;5018863;28;20146;-80
2021/04/04 11:26:51;;;;;;;;;;;17.20;51.80;;;;;;5020355;28;20313;-78
2021/04/04 11:29:21;;;;;;;;;;;16.40;51.80;;;;;;5020242;28;20405;-78
2021/04/04 11:31:51;;;;;;;;;;;15.70;54.90;;;;;;5009913;28;19960;-78
2021/04/04 11:34:30;;;;;;;;;;;15.60;56.60;;;;;;5009659;28;19912;-80
2021/04/04 11:36:56;;;;;;;;;;;15.20;55.50;;;;;;5010667;28;19910;-78
2021/04/04 11:39:22;;;;;;;;;;;14.80;54.70;;;;;;5012029;28;19921;-78
2021/04/04 11:41:55;;;;;;;;;;;16.10;52.50;;;;;;5028791;28;19909;-77
2021/04/04 11:44:26;;;;;;;;;;;16.80;51.40;;;;;;5040162;28;20403;-78
2021/04/04 11:46:51;;;;;;;;;;;18.90;47.80;;;;;;5039955;28;20026;-78
2021/04/04 11:49:37;;;;;;;8.13;3.42;;;20.10;49.60;;;;;;5032058;28;19955;-78
2021/04/04 11:52:09;;;;;;;3.33;2.38;;;22.40;44.10;;;;;;5028787;28;20124;-78
2021/04/04 11:54:44;;;;;;;3.15;2.65;;;22.60;43.80;;;;;;5031736;28;20021;-78
2021/04/04 11:57:30;;;;;;;5.20;2.35;;;23.10;43.90;;;;;;5035133;28;20028;-79
2021/04/04 12:00:16;;;;;;;4.70;3.00;;;23.60;40.80;;;;;;5055348;28;20031;-79
2021/04/04 12:02:50;;;;;;;4.25;2.55;;;22.80;43.90;;;;;;5055168;28;20017;-78
2021/04/04 12:05:18;;;;;;;3.90;2.08;;;22.60;43.00;;;;;;5051090;28;20035;-78
2021/04/04 12:07:51;;;;;;;6.10;3.50;;;20.70;43.60;;;;;;5050607;28;20025;-80
2021/04/04 12:10:48;;;;;;;5.13;2.65;;;19.00;45.80;;;;;;5050856;28;20032;-78
2021/04/04 12:13:15;;;;;;;4.40;2.08;;;17.60;47.70;;;;;;5035240;28;20037;-80
2021/04/04 12:15:41;;;;;;;;;;;17.20;48.60;;;;;;5055648;28;20024;-82
2021/04/04 12:18:06;;;;;;;;;;;17.70;49.70;;;;;;5055744;28;19908;-77
2021/04/04 12:20:33;;;;;;;;;;;19.10;48.10;;;;;;5051464;28;19905;-77
2021/04/04 12:23:08;;;;;;;;;;;20.10;49.90;;;;;;5051014;28;19996;-78
2021/04/04 12:25:33;;;;;;;;;;;20.40;46.80;;;;;;5050432;28;19904;-77
2021/04/04 12:28:00;;;;;;;8.18;2.85;;;20.40;45.40;;;;;;5050400;28;19912;-79
2021/04/04 12:30:32;;;;;;;;;;;19.80;45.90;;;;;;5050429;28;20509;-76
2021/04/04 12:33:07;;;;;;;;;;;18.30;45.60;;;;;;5050029;28;19956;-77
2021/04/04 12:35:33;;;;;;;;;;;17.60;47.70;;;;;;5049898;28;19905;-80
2021/04/04 12:37:59;;;;;;;4.45;2.28;;;17.80;48.00;;;;;;5051186;28;19904;-79
2021/04/04 12:40:26;;;;;;;5.80;3.20;;;17.20;49.40;;;;;;5050579;28;20080;-77
2021/04/04 12:42:57;;;;;;;6.10;2.80;;;17.50;52.10;;;;;;5049301;28;20271;-77
2021/04/04 12:45:23;;;;;;;5.65;3.10;;;17.50;48.00;;;;;;5049791;28;20116;-81
2021/04/04 12:47:49;;;;;;;6.20;2.63;;;17.10;51.10;;;;;;5049693;28;20029;-78
2021/04/04 12:50:15;;;;;;;;;;;16.00;52.60;;;;;;5033193;28;20044;-78
2021/04/04 12:52:48;;;;;;;;;;;15.30;52.20;;;;;;5049767;28;20000;-78
2021/04/04 12:55:15;;;;;;;;;;;15.00;52.40;;;;;;5049537;28;20110;-78
2021/04/04 12:57:41;;;;;;;;;;;15.00;52.50;;;;;;5049795;28;19904;-77
2021/04/04 13:00:15;;;;;;;;;;;14.60;53.00;;;;;;5050060;28;19959;-78
2021/04/04 13:02:40;;;;;;;;;;;14.00;54.20;;;;;;5050426;28;19909;-81
2021/04/04 13:05:06;;;;;;;;;;;13.60;55.90;;;;;;5050934;28;19905;-77
2021/04/04 13:07:32;;;;;;;;;;;14.30;54.60;;;;;;5048796;28;19909;-77
2021/04/04 13:09:57;;;;;;;;;;;14.80;53.90;;;;;;5018578;28;19995;-78
2021/04/04 13:12:23;;;;;;;;;;;14.70;52.20;;;;;;5024563;28;19909;-78
2021/04/04 13:14:48;;;;;;;;;;;15.00;54.10;;;;;;5033851;28;19905;-78
2021/04/04 13:17:14;;;;;;;;;;;15.50;54.80;;;;;;5029910;28;19905;-80
2021/04/04 13:19:40;;;;;;;;;;;15.50;52.00;;;;;;5029779;28;19952;-77
2021/04/04 13:22:06;;;;;;;;;;;15.90;55.20;;;;;;5029255;28;19974;-77
2021/04/04 13:24:32;;;;;;;;;;;15.80;52.60;;;;;;5018512;28;20352;-78
2021/04/04 13:26:58;;;;;;;4.72;3.55;;;16.30;51.10;;;;;;5014849;28;19913;-78
2021/04/04 13:29:36;;;;;;;4.95;2.80;;;16.40;50.40;;;;;;5015403;28;20025;-76
2021/04/04 13:32:02;;;;;;;5.35;3.03;;;16.40;53.60;;;;;;5012774;28;20054;-78
2021/04/04 13:34:36;;;;;;;7.82;3.35;;;16.50;53.10;;;;;;5012408;28;20100;-78
2021/04/04 13:37:02;;;;;;;;;;;16.40;50.70;;;;;;5013483;28;20032;-77
2021/04/04 13:39:29;;;;;;;;;;;15.80;53.00;;;;;;5013077;28;19906;-77
2021/04/04 13:41:55;;;;;;;;;;;15.20;54.50;;;;;;5023175;28;20291;-78
2021/04/04 13:44:23;;;;;;;;;;;15.20;53.90;;;;;;5026838;28;19909;-78
2021/04/04 13:46:59;;;;;;;;;;;15.20;54.00;;;;;;5033035;28;19909;-78
2021/04/04 13:49:33;;;;;;;;;;;15.40;55.60;;;;;;5033145;28;19920;-77
2021/04/04 13:52:09;;;;;;;;;;;15.40;54.20;;;;;;5033548;28;19909;-78
2021/04/04 13:54:35;;;;;;;;;;;15.20;55.10;;;;;;5033127;28;19905;-77
2021/04/04 13:57:01;;;;;;;;;;;14.90;56.70;;;;;;5033695;28;19905;-79
2021/04/04 13:59:27;;;;;;;;;;;15.00;56.70;;;;;;5033708;28;19912;-76
2021/04/04 14:01:53;;;;;;;;;;;14.80;55.20;;;;;;5033559;28;19948;-78
2021/04/04 14:04:23;;;;;;;;;;;14.80;55.80;;;;;;5032883;28;19959;-77
2021/04/04 14:06:52;;;;;;;;;;;14.60;56.60;;;;;;5033263;28;19928;-77
2021/04/04 14:09:18;;;;;;;;;;;14.40;55.70;;;;;;5032975;28;19905;-77